sensor_id;sensor_type;location;lat;lon;timestamp;pressure;altitude;pressure_sealevel;temperature
69545;BMP180;56766;52.260;20.746;2023-03-21T00:02:19;100295.80;;;7.20
69545;BMP180;56766;52.260;20.746;2023-03-21T00:04:46;100299.20;;;7.20
69545;BMP180;56766;52.260;20.746;2023-03-21T00:07:13;100295.20;;;7.20
69545;BMP180;56766;52.260;20.746;2023-03-21T00:09:39;100293.60;;;7.20
69545;BMP180;56766;52.260;20.746;2023-03-21T00:12:06;100292.00;;;7.20
69545;BMP180;56766;52.260;20.746;2023-03-21T00:14:35;100293.60;;;7.20
69545;BMP180;56766;52.260;20.746;2023-03-21T00:17:04;100292.00;;;7.20
69545;BMP180;56766;52.260;20.746;2023-03-21T00:19:30;100293.80;;;7.20
69545;BMP180;56766;52.260;20.746;2023-03-21T00:21:57;100288.00;;;7.20
69545;BMP180;56766;52.260;20.746;2023-03-21T00:24:24;100287.20;;;7.20
69545;BMP180;56766;52.260;20.746;2023-03-21T00:26:51;100286.80;;;7.20
69545;BMP180;56766;52.260;20.746;2023-03-21T00:29:17;100284.40;;;7.20
69545;BMP180;56766;52.260;20.746;2023-03-21T00:31:44;100280.80;;;7.20
69545;BMP180;56766;52.260;20.746;2023-03-21T00:34:11;100282.80;;;7.20
69545;BMP180;56766;52.260;20.746;2023-03-21T00:36:38;100285.80;;;7.20
69545;BMP180;56766;52.260;20.746;2023-03-21T00:39:04;100276.40;;;7.20
69545;BMP180;56766;52.260;20.746;2023-03-21T00:41:31;100279.60;;;7.20
69545;BMP180;56766;52.260;20.746;2023-03-21T00:43:58;100277.60;;;7.20
69545;BMP180;56766;52.260;20.746;2023-03-21T00:46:25;100281.00;;;7.20
69545;BMP180;56766;52.260;20.746;2023-03-21T00:48:51;100279.60;;;7.20
69545;BMP180;56766;52.260;20.746;2023-03-21T00:51:22;100279.20;;;7.20
69545;BMP180;56766;52.260;20.746;2023-03-21T00:53:55;100276.40;;;7.20
69545;BMP180;56766;52.260;20.746;2023-03-21T00:56:22;100281.20;;;7.20
69545;BMP180;56766;52.260;20.746;2023-03-21T00:58:49;100274.80;;;7.20
69545;BMP180;56766;52.260;20.746;2023-03-21T01:01:17;100277.40;;;7.20
69545;BMP180;56766;52.260;20.746;2023-03-21T01:03:44;100272.20;;;7.20
69545;BMP180;56766;52.260;20.746;2023-03-21T01:06:13;100270.80;;;7.20
69545;BMP180;56766;52.260;20.746;2023-03-21T01:08:47;100267.60;;;7.20
69545;BMP180;56766;52.260;20.746;2023-03-21T01:11:19;100270.40;;;7.20
69545;BMP180;56766;52.260;20.746;2023-03-21T01:13:46;100263.40;;;7.20
69545;BMP180;56766;52.260;20.746;2023-03-21T01:16:13;100265.60;;;7.20
69545;BMP180;56766;52.260;20.746;2023-03-21T01:18:40;100264.00;;;7.14
69545;BMP180;56766;52.260;20.746;2023-03-21T01:21:12;100264.80;;;7.10
69545;BMP180;56766;52.260;20.746;2023-03-21T01:23:41;100264.00;;;7.10
69545;BMP180;56766;52.260;20.746;2023-03-21T01:26:10;100261.80;;;7.10
69545;BMP180;56766;52.260;20.746;2023-03-21T01:28:41;100261.40;;;7.10
69545;BMP180;56766;52.260;20.746;2023-03-21T01:31:12;100257.00;;;7.10
69545;BMP180;56766;52.260;20.746;2023-03-21T01:33:40;100249.60;;;7.08
69545;BMP180;56766;52.260;20.746;2023-03-21T01:36:12;100252.40;;;7.02
69545;BMP180;56766;52.260;20.746;2023-03-21T01:38:41;100246.80;;;7.00
69545;BMP180;56766;52.260;20.746;2023-03-21T01:43:58;100253.00;;;7.04
69545;BMP180;56766;52.260;20.746;2023-03-21T01:49:12;100247.20;;;7.04
69545;BMP180;56766;52.260;20.746;2023-03-21T01:51:47;100246.60;;;7.00
69545;BMP180;56766;52.260;20.746;2023-03-21T01:54:24;100245.80;;;7.00
69545;BMP180;56766;52.260;20.746;2023-03-21T01:56:57;100242.60;;;7.00
69545;BMP180;56766;52.260;20.746;2023-03-21T01:59:47;100238.00;;;7.00
69545;BMP180;56766;52.260;20.746;2023-03-21T02:02:27;100237.20;;;7.00
69545;BMP180;56766;52.260;20.746;2023-03-21T02:04:57;100239.00;;;7.00
69545;BMP180;56766;52.260;20.746;2023-03-21T02:07:32;100240.00;;;6.96
69545;BMP180;56766;52.260;20.746;2023-03-21T02:10:11;100240.00;;;6.90
69545;BMP180;56766;52.260;20.746;2023-03-21T02:12:39;100238.40;;;6.90
69545;BMP180;56766;52.260;20.746;2023-03-21T02:15:07;100251.40;;;6.90
69545;BMP180;56766;52.260;20.746;2023-03-21T02:17:57;100251.60;;;6.90
69545;BMP180;56766;52.260;20.746;2023-03-21T02:27:10;100246.40;;;6.90
69545;BMP180;56766;52.260;20.746;2023-03-21T02:39:13;100244.40;;;7.02
69545;BMP180;56766;52.260;20.746;2023-03-21T02:41:54;100243.80;;;7.04
69545;BMP180;56766;52.260;20.746;2023-03-21T02:47:40;100251.00;;;7.10
69545;BMP180;56766;52.260;20.746;2023-03-21T02:50:31;100248.00;;;7.10
69545;BMP180;56766;52.260;20.746;2023-03-21T02:53:05;100246.60;;;7.10
69545;BMP180;56766;52.260;20.746;2023-03-21T02:55:36;100250.00;;;7.10
69545;BMP180;56766;52.260;20.746;2023-03-21T02:58:08;100248.40;;;7.10
69545;BMP180;56766;52.260;20.746;2023-03-21T03:00:39;100250.40;;;7.10
69545;BMP180;56766;52.260;20.746;2023-03-21T03:03:05;100253.60;;;7.10
69545;BMP180;56766;52.260;20.746;2023-03-21T03:05:44;100253.20;;;7.10
69545;BMP180;56766;52.260;20.746;2023-03-21T03:11:25;100256.20;;;7.10
69545;BMP180;56766;52.260;20.746;2023-03-21T03:19:29;100265.80;;;7.10
69545;BMP180;56766;52.260;20.746;2023-03-21T03:25:06;100260.20;;;7.10
69545;BMP180;56766;52.260;20.746;2023-03-21T03:27:42;100258.40;;;7.10
69545;BMP180;56766;52.260;20.746;2023-03-21T03:30:12;100261.60;;;7.10
69545;BMP180;56766;52.260;20.746;2023-03-21T03:32:56;100255.20;;;7.10
69545;BMP180;56766;52.260;20.746;2023-03-21T03:35:25;100262.80;;;7.10
69545;BMP180;56766;52.260;20.746;2023-03-21T03:37:57;100264.20;;;7.10
69545;BMP180;56766;52.260;20.746;2023-03-21T03:40:35;100269.60;;;7.10
69545;BMP180;56766;52.260;20.746;2023-03-21T03:43:11;100268.60;;;7.10
69545;BMP180;56766;52.260;20.746;2023-03-21T03:45:48;100262.40;;;7.10
69545;BMP180;56766;52.260;20.746;2023-03-21T03:48:48;100257.00;;;7.10
69545;BMP180;56766;52.260;20.746;2023-03-21T03:51:39;100263.40;;;7.10
69545;BMP180;56766;52.260;20.746;2023-03-21T03:54:16;100259.00;;;7.10
69545;BMP180;56766;52.260;20.746;2023-03-21T03:56:45;100258.00;;;7.10
69545;BMP180;56766;52.260;20.746;2023-03-21T03:59:15;100263.00;;;7.10
69545;BMP180;56766;52.260;20.746;2023-03-21T04:01:48;100262.60;;;7.10
69545;BMP180;56766;52.260;20.746;2023-03-21T04:04:16;100266.80;;;7.10
69545;BMP180;56766;52.260;20.746;2023-03-21T04:06:44;100264.00;;;7.10
69545;BMP180;56766;52.260;20.746;2023-03-21T04:09:17;100267.40;;;7.10
69545;BMP180;56766;52.260;20.746;2023-03-21T04:11:44;100264.40;;;7.10
69545;BMP180;56766;52.260;20.746;2023-03-21T04:14:12;100263.80;;;7.10
69545;BMP180;56766;52.260;20.746;2023-03-21T04:16:38;100261.60;;;7.10
69545;BMP180;56766;52.260;20.746;2023-03-21T04:19:05;100264.60;;;7.10
69545;BMP180;56766;52.260;20.746;2023-03-21T04:21:31;100262.20;;;7.08
69545;BMP180;56766;52.260;20.746;2023-03-21T04:23:58;100256.60;;;7.08
69545;BMP180;56766;52.260;20.746;2023-03-21T04:26:25;100258.00;;;7.08
69545;BMP180;56766;52.260;20.746;2023-03-21T04:28:59;100262.80;;;7.06
69545;BMP180;56766;52.260;20.746;2023-03-21T04:31:28;100262.60;;;7.04
69545;BMP180;56766;52.260;20.746;2023-03-21T04:33:57;100266.80;;;7.00
69545;BMP180;56766;52.260;20.746;2023-03-21T04:36:25;100264.80;;;7.06
69545;BMP180;56766;52.260;20.746;2023-03-21T04:39:05;100265.20;;;7.08
69545;BMP180;56766;52.260;20.746;2023-03-21T04:41:43;100266.40;;;7.06
69545;BMP180;56766;52.260;20.746;2023-03-21T04:44:13;100269.60;;;7.06
69545;BMP180;56766;52.260;20.746;2023-03-21T04:46:42;100268.20;;;7.02
69545;BMP180;56766;52.260;20.746;2023-03-21T04:49:09;100272.20;;;7.00
69545;BMP180;56766;52.260;20.746;2023-03-21T04:51:37;100269.00;;;7.00
69545;BMP180;56766;52.260;20.746;2023-03-21T04:54:04;100266.00;;;7.00
69545;BMP180;56766;52.260;20.746;2023-03-21T04:56:31;100267.20;;;7.02
69545;BMP180;56766;52.260;20.746;2023-03-21T04:59:05;100269.80;;;7.04
69545;BMP180;56766;52.260;20.746;2023-03-21T05:01:32;100276.40;;;7.02
69545;BMP180;56766;52.260;20.746;2023-03-21T05:04:02;100276.20;;;7.10
69545;BMP180;56766;52.260;20.746;2023-03-21T05:06:30;100276.20;;;7.10
69545;BMP180;56766;52.260;20.746;2023-03-21T05:08:59;100273.60;;;7.10
69545;BMP180;56766;52.260;20.746;2023-03-21T05:11:27;100272.00;;;7.10
69545;BMP180;56766;52.260;20.746;2023-03-21T05:13:58;100275.00;;;7.10
69545;BMP180;56766;52.260;20.746;2023-03-21T05:16:25;100278.20;;;7.10
69545;BMP180;56766;52.260;20.746;2023-03-21T05:19:01;100277.00;;;7.10
69545;BMP180;56766;52.260;20.746;2023-03-21T05:21:32;100277.20;;;7.10
69545;BMP180;56766;52.260;20.746;2023-03-21T05:24:19;100279.80;;;7.10
69545;BMP180;56766;52.260;20.746;2023-03-21T05:26:47;100278.60;;;7.10
69545;BMP180;56766;52.260;20.746;2023-03-21T05:29:18;100283.80;;;7.20
69545;BMP180;56766;52.260;20.746;2023-03-21T05:31:45;100288.80;;;7.20
69545;BMP180;56766;52.260;20.746;2023-03-21T05:34:12;100284.80;;;7.20
69545;BMP180;56766;52.260;20.746;2023-03-21T05:36:39;100286.00;;;7.30
69545;BMP180;56766;52.260;20.746;2023-03-21T05:39:06;100281.80;;;7.30
69545;BMP180;56766;52.260;20.746;2023-03-21T05:41:33;100285.80;;;7.40
69545;BMP180;56766;52.260;20.746;2023-03-21T05:43:59;100291.20;;;7.40
69545;BMP180;56766;52.260;20.746;2023-03-21T05:46:26;100292.80;;;7.40
69545;BMP180;56766;52.260;20.746;2023-03-21T05:48:53;100295.80;;;7.40
69545;BMP180;56766;52.260;20.746;2023-03-21T05:51:20;100298.00;;;7.40
69545;BMP180;56766;52.260;20.746;2023-03-21T05:53:47;100297.40;;;7.40
69545;BMP180;56766;52.260;20.746;2023-03-21T05:56:14;100304.20;;;7.44
69545;BMP180;56766;52.260;20.746;2023-03-21T05:58:41;100306.00;;;7.44
69545;BMP180;56766;52.260;20.746;2023-03-21T06:01:08;100301.40;;;7.40
69545;BMP180;56766;52.260;20.746;2023-03-21T06:03:35;100309.60;;;7.44
69545;BMP180;56766;52.260;20.746;2023-03-21T06:06:02;100312.00;;;7.50
69545;BMP180;56766;52.260;20.746;2023-03-21T06:08:29;100314.20;;;7.50
69545;BMP180;56766;52.260;20.746;2023-03-21T06:10:57;100316.00;;;7.58
69545;BMP180;56766;52.260;20.746;2023-03-21T06:13:23;100316.20;;;7.60
69545;BMP180;56766;52.260;20.746;2023-03-21T06:15:50;100320.00;;;7.60
69545;BMP180;56766;52.260;20.746;2023-03-21T06:18:17;100315.80;;;7.70
69545;BMP180;56766;52.260;20.746;2023-03-21T06:20:44;100321.60;;;7.60
69545;BMP180;56766;52.260;20.746;2023-03-21T06:23:10;100316.00;;;7.60
69545;BMP180;56766;52.260;20.746;2023-03-21T06:25:37;100321.00;;;7.66
69545;BMP180;56766;52.260;20.746;2023-03-21T06:28:03;100321.40;;;7.70
69545;BMP180;56766;52.260;20.746;2023-03-21T06:30:30;100327.40;;;7.70
69545;BMP180;56766;52.260;20.746;2023-03-21T06:32:57;100334.60;;;7.70
69545;BMP180;56766;52.260;20.746;2023-03-21T06:35:23;100328.60;;;7.70
69545;BMP180;56766;52.260;20.746;2023-03-21T06:37:50;100330.00;;;7.70
69545;BMP180;56766;52.260;20.746;2023-03-21T06:40:17;100333.80;;;7.70
69545;BMP180;56766;52.260;20.746;2023-03-21T06:42:44;100333.60;;;7.70
69545;BMP180;56766;52.260;20.746;2023-03-21T06:45:10;100333.00;;;7.70
69545;BMP180;56766;52.260;20.746;2023-03-21T06:47:37;100338.20;;;7.70
69545;BMP180;56766;52.260;20.746;2023-03-21T06:50:04;100343.20;;;7.70
69545;BMP180;56766;52.260;20.746;2023-03-21T06:52:32;100339.80;;;7.70
69545;BMP180;56766;52.260;20.746;2023-03-21T06:54:59;100344.60;;;7.70
69545;BMP180;56766;52.260;20.746;2023-03-21T06:57:25;100349.60;;;7.80
69545;BMP180;56766;52.260;20.746;2023-03-21T06:59:52;100349.40;;;7.80
69545;BMP180;56766;52.260;20.746;2023-03-21T07:02:19;100347.40;;;7.90
69545;BMP180;56766;52.260;20.746;2023-03-21T07:04:45;100344.20;;;8.00
69545;BMP180;56766;52.260;20.746;2023-03-21T07:07:12;100347.80;;;8.10
69545;BMP180;56766;52.260;20.746;2023-03-21T07:09:39;100354.80;;;8.22
69545;BMP180;56766;52.260;20.746;2023-03-21T07:12:06;100349.80;;;8.30
69545;BMP180;56766;52.260;20.746;2023-03-21T07:14:33;100351.40;;;8.40
69545;BMP180;56766;52.260;20.746;2023-03-21T07:17:00;100356.80;;;8.40
69545;BMP180;56766;52.260;20.746;2023-03-21T07:19:27;100358.80;;;8.50
69545;BMP180;56766;52.260;20.746;2023-03-21T07:21:53;100359.20;;;8.50
69545;BMP180;56766;52.260;20.746;2023-03-21T07:24:20;100363.00;;;8.68
69545;BMP180;56766;52.260;20.746;2023-03-21T07:26:46;100367.00;;;8.70
69545;BMP180;56766;52.260;20.746;2023-03-21T07:29:13;100365.60;;;8.70
69545;BMP180;56766;52.260;20.746;2023-03-21T07:31:40;100360.20;;;8.76
69545;BMP180;56766;52.260;20.746;2023-03-21T07:34:07;100363.60;;;8.80
69545;BMP180;56766;52.260;20.746;2023-03-21T07:36:34;100354.60;;;8.90
69545;BMP180;56766;52.260;20.746;2023-03-21T07:39:03;100363.20;;;9.00
69545;BMP180;56766;52.260;20.746;2023-03-21T07:41:30;100360.40;;;9.00
69545;BMP180;56766;52.260;20.746;2023-03-21T07:43:56;100360.00;;;9.00
69545;BMP180;56766;52.260;20.746;2023-03-21T07:46:23;100357.80;;;9.10
69545;BMP180;56766;52.260;20.746;2023-03-21T07:48:50;100355.40;;;9.16
69545;BMP180;56766;52.260;20.746;2023-03-21T07:51:16;100362.00;;;9.30
69545;BMP180;56766;52.260;20.746;2023-03-21T07:53:43;100354.20;;;9.40
69545;BMP180;56766;52.260;20.746;2023-03-21T07:56:13;100355.40;;;9.50
69545;BMP180;56766;52.260;20.746;2023-03-21T07:58:41;100363.20;;;9.50
69545;BMP180;56766;52.260;20.746;2023-03-21T08:01:08;100359.80;;;9.60
69545;BMP180;56766;52.260;20.746;2023-03-21T08:03:34;100365.40;;;9.70
69545;BMP180;56766;52.260;20.746;2023-03-21T08:06:01;100365.40;;;9.90
69545;BMP180;56766;52.260;20.746;2023-03-21T08:08:28;100366.40;;;10.00
69545;BMP180;56766;52.260;20.746;2023-03-21T08:10:55;100360.80;;;10.00
69545;BMP180;56766;52.260;20.746;2023-03-21T08:13:21;100371.00;;;9.90
69545;BMP180;56766;52.260;20.746;2023-03-21T08:15:48;100364.20;;;9.82
69545;BMP180;56766;52.260;20.746;2023-03-21T08:18:15;100366.20;;;9.90
69545;BMP180;56766;52.260;20.746;2023-03-21T08:20:41;100367.00;;;10.00
69545;BMP180;56766;52.260;20.746;2023-03-21T08:23:08;100360.80;;;10.00
69545;BMP180;56766;52.260;20.746;2023-03-21T08:25:35;100362.20;;;10.08
69545;BMP180;56766;52.260;20.746;2023-03-21T08:28:02;100361.40;;;10.00
69545;BMP180;56766;52.260;20.746;2023-03-21T08:30:30;100363.80;;;10.00
69545;BMP180;56766;52.260;20.746;2023-03-21T08:33:00;100362.80;;;10.00
69545;BMP180;56766;52.260;20.746;2023-03-21T08:35:28;100365.00;;;10.00
69545;BMP180;56766;52.260;20.746;2023-03-21T08:37:56;100370.80;;;10.14
69545;BMP180;56766;52.260;20.746;2023-03-21T08:40:23;100375.80;;;10.20
69545;BMP180;56766;52.260;20.746;2023-03-21T08:42:50;100376.00;;;10.20
69545;BMP180;56766;52.260;20.746;2023-03-21T08:45:17;100375.00;;;10.20
69545;BMP180;56766;52.260;20.746;2023-03-21T08:47:45;100378.40;;;10.20
69545;BMP180;56766;52.260;20.746;2023-03-21T08:50:18;100388.60;;;10.20
69545;BMP180;56766;52.260;20.746;2023-03-21T08:52:47;100383.80;;;10.30
69545;BMP180;56766;52.260;20.746;2023-03-21T08:55:17;100384.60;;;10.30
69545;BMP180;56766;52.260;20.746;2023-03-21T08:57:44;100387.80;;;10.30
69545;BMP180;56766;52.260;20.746;2023-03-21T09:00:16;100387.80;;;10.20
69545;BMP180;56766;52.260;20.746;2023-03-21T09:02:46;100391.80;;;10.10
69545;BMP180;56766;52.260;20.746;2023-03-21T09:05:14;100394.20;;;10.00
69545;BMP180;56766;52.260;20.746;2023-03-21T09:07:43;100404.60;;;9.90
69545;BMP180;56766;52.260;20.746;2023-03-21T09:10:18;100398.80;;;9.70
69545;BMP180;56766;52.260;20.746;2023-03-21T09:12:45;100396.20;;;9.80
69545;BMP180;56766;52.260;20.746;2023-03-21T09:15:13;100397.60;;;9.90
69545;BMP180;56766;52.260;20.746;2023-03-21T09:17:40;100401.40;;;10.00
69545;BMP180;56766;52.260;20.746;2023-03-21T09:20:15;100403.20;;;10.14
69545;BMP180;56766;52.260;20.746;2023-03-21T09:22:49;100410.20;;;10.28
69545;BMP180;56766;52.260;20.746;2023-03-21T09:25:18;100403.00;;;10.30
69545;BMP180;56766;52.260;20.746;2023-03-21T09:27:46;100406.20;;;10.42
69545;BMP180;56766;52.260;20.746;2023-03-21T09:30:17;100409.60;;;10.54
69545;BMP180;56766;52.260;20.746;2023-03-21T09:32:45;100415.60;;;10.60
69545;BMP180;56766;52.260;20.746;2023-03-21T09:35:16;100412.60;;;10.60
69545;BMP180;56766;52.260;20.746;2023-03-21T09:37:46;100416.80;;;10.58
69545;BMP180;56766;52.260;20.746;2023-03-21T09:40:23;100414.60;;;10.40
69545;BMP180;56766;52.260;20.746;2023-03-21T09:43:13;100413.00;;;10.12
69545;BMP180;56766;52.260;20.746;2023-03-21T09:46:06;100419.40;;;9.90
69545;BMP180;56766;52.260;20.746;2023-03-21T09:48:56;100419.40;;;9.70
69545;BMP180;56766;52.260;20.746;2023-03-21T09:51:39;100419.20;;;9.60
69545;BMP180;56766;52.260;20.746;2023-03-21T09:54:22;100421.80;;;9.52
69545;BMP180;56766;52.260;20.746;2023-03-21T09:56:57;100422.80;;;9.60
69545;BMP180;56766;52.260;20.746;2023-03-21T09:59:38;100424.20;;;9.60
69545;BMP180;56766;52.260;20.746;2023-03-21T10:02:25;100427.40;;;9.60
69545;BMP180;56766;52.260;20.746;2023-03-21T10:04:59;100428.20;;;9.72
69545;BMP180;56766;52.260;20.746;2023-03-21T10:07:38;100425.20;;;9.90
69545;BMP180;56766;52.260;20.746;2023-03-21T10:10:06;100424.40;;;10.00
69545;BMP180;56766;52.260;20.746;2023-03-21T10:12:36;100428.40;;;10.08
69545;BMP180;56766;52.260;20.746;2023-03-21T10:15:04;100428.60;;;10.10
69545;BMP180;56766;52.260;20.746;2023-03-21T10:17:38;100428.00;;;10.10
69545;BMP180;56766;52.260;20.746;2023-03-21T10:20:25;100435.20;;;10.22
69545;BMP180;56766;52.260;20.746;2023-03-21T10:22:57;100433.40;;;10.40
69545;BMP180;56766;52.260;20.746;2023-03-21T10:25:36;100433.60;;;10.60
69545;BMP180;56766;52.260;20.746;2023-03-21T10:28:08;100434.00;;;10.94
69545;BMP180;56766;52.260;20.746;2023-03-21T10:30:50;100435.00;;;11.30
69545;BMP180;56766;52.260;20.746;2023-03-21T10:33:37;100433.00;;;11.44
69545;BMP180;56766;52.260;20.746;2023-03-21T10:36:10;100437.60;;;11.50
69545;BMP180;56766;52.260;20.746;2023-03-21T10:38:49;100441.80;;;11.60
69545;BMP180;56766;52.260;20.746;2023-03-21T10:41:18;100440.60;;;11.84
69545;BMP180;56766;52.260;20.746;2023-03-21T10:44:10;100440.80;;;12.00
69545;BMP180;56766;52.260;20.746;2023-03-21T10:47:06;100435.20;;;12.10
69545;BMP180;56766;52.260;20.746;2023-03-21T10:49:36;100432.60;;;12.20
69545;BMP180;56766;52.260;20.746;2023-03-21T10:52:10;100435.00;;;12.10
69545;BMP180;56766;52.260;20.746;2023-03-21T10:54:37;100430.40;;;12.10
69545;BMP180;56766;52.260;20.746;2023-03-21T10:57:10;100433.60;;;12.00
69545;BMP180;56766;52.260;20.746;2023-03-21T10:59:45;100428.20;;;11.80
69545;BMP180;56766;52.260;20.746;2023-03-21T11:02:31;100424.80;;;11.70
69545;BMP180;56766;52.260;20.746;2023-03-21T11:05:07;100428.00;;;11.60
69545;BMP180;56766;52.260;20.746;2023-03-21T11:07:35;100424.60;;;11.40
69545;BMP180;56766;52.260;20.746;2023-03-21T11:10:15;100426.40;;;11.20
69545;BMP180;56766;52.260;20.746;2023-03-21T11:12:56;100420.00;;;11.10
69545;BMP180;56766;52.260;20.746;2023-03-21T11:15:28;100418.60;;;11.20
69545;BMP180;56766;52.260;20.746;2023-03-21T11:17:58;100426.20;;;11.46
69545;BMP180;56766;52.260;20.746;2023-03-21T11:20:30;100424.20;;;11.60
69545;BMP180;56766;52.260;20.746;2023-03-21T11:22:57;100423.60;;;11.72
69545;BMP180;56766;52.260;20.746;2023-03-21T11:25:37;100426.20;;;11.80
69545;BMP180;56766;52.260;20.746;2023-03-21T11:28:12;100429.00;;;11.90
69545;BMP180;56766;52.260;20.746;2023-03-21T11:31:09;100420.00;;;11.80
69545;BMP180;56766;52.260;20.746;2023-03-21T11:38:51;100419.60;;;10.90
69545;BMP180;56766;52.260;20.746;2023-03-21T11:41:28;100420.20;;;10.60
69545;BMP180;56766;52.260;20.746;2023-03-21T11:43:57;100422.80;;;10.50
69545;BMP180;56766;52.260;20.746;2023-03-21T11:46:29;100420.40;;;10.40
69545;BMP180;56766;52.260;20.746;2023-03-21T11:48:58;100421.80;;;10.42
69545;BMP180;56766;52.260;20.746;2023-03-21T11:51:36;100420.00;;;10.50
69545;BMP180;56766;52.260;20.746;2023-03-21T11:54:18;100421.60;;;10.60
69545;BMP180;56766;52.260;20.746;2023-03-21T11:57:13;100420.60;;;10.70
69545;BMP180;56766;52.260;20.746;2023-03-21T12:02:54;100420.60;;;11.04
69545;BMP180;56766;52.260;20.746;2023-03-21T12:05:31;100418.40;;;11.10
69545;BMP180;56766;52.260;20.746;2023-03-21T12:08:18;100413.00;;;11.16
69545;BMP180;56766;52.260;20.746;2023-03-21T12:11:14;100410.80;;;11.20
69545;BMP180;56766;52.260;20.746;2023-03-21T12:16:51;100410.20;;;11.30
69545;BMP180;56766;52.260;20.746;2023-03-21T12:25:45;100401.60;;;11.62
69545;BMP180;56766;52.260;20.746;2023-03-21T12:28:59;100400.60;;;11.80
69545;BMP180;56766;52.260;20.746;2023-03-21T12:35:05;100397.00;;;11.80
69545;BMP180;56766;52.260;20.746;2023-03-21T12:46:44;100393.80;;;11.60
69545;BMP180;56766;52.260;20.746;2023-03-21T12:50:28;100392.40;;;11.60
69545;BMP180;56766;52.260;20.746;2023-03-21T12:52:45;100390.20;;;11.70
69545;BMP180;56766;52.260;20.746;2023-03-21T12:55:29;100388.40;;;11.80
69545;BMP180;56766;52.260;20.746;2023-03-21T12:58:14;100387.20;;;11.80
69545;BMP180;56766;52.260;20.746;2023-03-21T13:00:59;100385.20;;;11.80
69545;BMP180;56766;52.260;20.746;2023-03-21T13:03:39;100380.00;;;11.80
69545;BMP180;56766;52.260;20.746;2023-03-21T13:06:13;100381.00;;;11.80
69545;BMP180;56766;52.260;20.746;2023-03-21T13:08:59;100387.60;;;11.82
69545;BMP180;56766;52.260;20.746;2023-03-21T13:11:31;100384.80;;;11.90
69545;BMP180;56766;52.260;20.746;2023-03-21T13:14:24;100383.20;;;11.90
69545;BMP180;56766;52.260;20.746;2023-03-21T13:17:08;100382.60;;;11.86
69545;BMP180;56766;52.260;20.746;2023-03-21T13:19:55;100383.80;;;11.90
69545;BMP180;56766;52.260;20.746;2023-03-21T13:22:28;100383.00;;;12.00
69545;BMP180;56766;52.260;20.746;2023-03-21T13:25:14;100383.80;;;12.14
69545;BMP180;56766;52.260;20.746;2023-03-21T13:27:50;100379.80;;;12.30
69545;BMP180;56766;52.260;20.746;2023-03-21T13:30:24;100376.40;;;12.20
69545;BMP180;56766;52.260;20.746;2023-03-21T13:33:06;100378.20;;;12.10
69545;BMP180;56766;52.260;20.746;2023-03-21T13:35:42;100375.00;;;12.18
69545;BMP180;56766;52.260;20.746;2023-03-21T13:38:23;100378.40;;;12.20
69545;BMP180;56766;52.260;20.746;2023-03-21T13:40:58;100375.60;;;12.40
69545;BMP180;56766;52.260;20.746;2023-03-21T13:43:43;100368.00;;;12.40
69545;BMP180;56766;52.260;20.746;2023-03-21T13:46:35;100368.80;;;12.30
69545;BMP180;56766;52.260;20.746;2023-03-21T13:49:14;100364.00;;;12.32
69545;BMP180;56766;52.260;20.746;2023-03-21T13:51:52;100363.80;;;12.30
69545;BMP180;56766;52.260;20.746;2023-03-21T13:57:05;100368.40;;;12.30
69545;BMP180;56766;52.260;20.746;2023-03-21T13:59:41;100364.60;;;12.30
69545;BMP180;56766;52.260;20.746;2023-03-21T14:04:42;100364.60;;;12.20
69545;BMP180;56766;52.260;20.746;2023-03-21T14:07:22;100368.40;;;12.30
69545;BMP180;56766;52.260;20.746;2023-03-21T14:09:58;100361.60;;;12.40
69545;BMP180;56766;52.260;20.746;2023-03-21T14:12:36;100355.80;;;12.40
69545;BMP180;56766;52.260;20.746;2023-03-21T14:15:23;100361.60;;;12.30
69545;BMP180;56766;52.260;20.746;2023-03-21T14:18:01;100364.40;;;12.20
69545;BMP180;56766;52.260;20.746;2023-03-21T14:20:37;100369.00;;;12.00
69545;BMP180;56766;52.260;20.746;2023-03-21T14:23:14;100365.40;;;11.96
69545;BMP180;56766;52.260;20.746;2023-03-21T14:25:43;100370.00;;;11.82
69545;BMP180;56766;52.260;20.746;2023-03-21T14:28:20;100369.00;;;11.72
69545;BMP180;56766;52.260;20.746;2023-03-21T14:30:54;100371.00;;;11.70
69545;BMP180;56766;52.260;20.746;2023-03-21T14:33:31;100370.20;;;11.60
69545;BMP180;56766;52.260;20.746;2023-03-21T14:36:05;100371.00;;;11.54
69545;BMP180;56766;52.260;20.746;2023-03-21T14:38:38;100364.20;;;11.58
69545;BMP180;56766;52.260;20.746;2023-03-21T14:41:22;100373.40;;;11.52
69545;BMP180;56766;52.260;20.746;2023-03-21T14:46:39;100369.20;;;11.50
69545;BMP180;56766;52.260;20.746;2023-03-21T14:49:30;100367.00;;;11.50
69545;BMP180;56766;52.260;20.746;2023-03-21T14:52:15;100367.40;;;11.50
69545;BMP180;56766;52.260;20.746;2023-03-21T14:54:46;100365.40;;;11.50
69545;BMP180;56766;52.260;20.746;2023-03-21T14:57:20;100366.80;;;11.50
69545;BMP180;56766;52.260;20.746;2023-03-21T14:59:54;100367.80;;;11.50
69545;BMP180;56766;52.260;20.746;2023-03-21T15:02:30;100372.80;;;11.50
69545;BMP180;56766;52.260;20.746;2023-03-21T15:05:13;100368.00;;;11.30
69545;BMP180;56766;52.260;20.746;2023-03-21T15:07:40;100364.20;;;11.20
69545;BMP180;56766;52.260;20.746;2023-03-21T15:10:16;100359.40;;;11.10
69545;BMP180;56766;52.260;20.746;2023-03-21T15:12:59;100363.40;;;11.10
69545;BMP180;56766;52.260;20.746;2023-03-21T15:15:28;100362.40;;;11.00
69545;BMP180;56766;52.260;20.746;2023-03-21T15:18:04;100362.00;;;11.00
69545;BMP180;56766;52.260;20.746;2023-03-21T15:20:37;100364.20;;;10.98
69545;BMP180;56766;52.260;20.746;2023-03-21T15:23:16;100370.00;;;10.90
69545;BMP180;56766;52.260;20.746;2023-03-21T15:25:44;100365.00;;;10.90
69545;BMP180;56766;52.260;20.746;2023-03-21T15:28:13;100360.80;;;10.90
69545;BMP180;56766;52.260;20.746;2023-03-21T15:30:51;100362.20;;;10.90
69545;BMP180;56766;52.260;20.746;2023-03-21T15:33:19;100351.40;;;11.00
69545;BMP180;56766;52.260;20.746;2023-03-21T15:35:53;100354.00;;;11.00
69545;BMP180;56766;52.260;20.746;2023-03-21T15:38:38;100357.40;;;11.00